Time;durP1;ratioP1;P1;durP2;ratioP2;P2;SDS_P1;SDS_P2;PMS_P1;PMS_P2;Temp;Humidity;BMP_temperature;BMP_pressure;BME280_temperature;BME280_humidity;BME280_pressure;Samples;Min_cycle;Max_cycle;Signal;HPM_P1;HPM_P2
2021/09/27 00:01:35;;;;;;;15.80;11.00;;;;;;;13.68;84.16;98978.27;236357;1192;25253;-73
2021/09/27 00:06:39;;;;;;;17.80;11.30;;;;;;;13.66;84.07;98975.92;236313;1190;25333;-71
2021/09/27 00:11:45;;;;;;;15.50;12.90;;;;;;;13.62;84.13;98978.38;236255;1198;23990;-72
2021/09/27 00:16:50;;;;;;;15.40;11.90;;;;;;;13.59;84.35;98973.54;236194;1197;25269;-72
2021/09/27 00:21:57;;;;;;;15.40;12.10;;;;;;;13.58;84.29;98974.86;236224;1198;22420;-73
2021/09/27 00:27:05;;;;;;;14.50;11.50;;;;;;;13.55;84.38;98971.76;236557;1197;25110;-73
2021/09/27 00:32:08;;;;;;;15.00;12.90;;;;;;;13.53;84.42;98968.63;236297;1174;22430;-74
2021/09/27 00:37:10;;;;;;;18.90;13.20;;;;;;;13.48;84.44;98966.41;236310;1197;22421;-73
2021/09/27 00:42:13;;;;;;;15.40;11.60;;;;;;;13.44;84.53;98964.61;236219;1190;24041;-71
2021/09/27 00:47:16;;;;;;;17.00;11.80;;;;;;;13.39;84.47;98964.88;236077;1198;22425;-74
2021/09/27 00:52:19;;;;;;;18.60;11.60;;;;;;;13.35;84.53;98965.50;236234;1198;24091;-73
2021/09/27 00:57:25;;;;;;;15.70;12.50;;;;;;;13.33;84.73;98964.98;236129;1198;24060;-74
2021/09/27 01:02:27;;;;;;;15.70;11.90;;;;;;;13.35;85.09;98961.83;236313;1197;22457;-71
2021/09/27 01:07:52;;;;;;;13.80;11.30;;;;;;;13.33;85.08;98957.28;236321;1190;22512;-71
2021/09/27 01:13:32;;;;;;;13.20;11.50;;;;;;;13.32;85.15;98955.47;236325;1192;24044;-74
2021/09/27 01:18:49;;;;;;;15.60;12.80;;;;;;;13.32;85.24;98946.08;236289;1197;25145;-72
2021/09/27 01:24:10;;;;;;;16.40;12.70;;;;;;;13.28;85.07;98938.98;236158;1197;22436;-72
2021/09/27 01:29:39;;;;;;;15.80;12.30;;;;;;;13.20;85.10;98933.89;236229;1190;22928;-74
2021/09/27 01:34:49;;;;;;;14.10;11.40;;;;;;;13.14;85.18;98933.23;236412;1192;22439;-72
2021/09/27 01:40:07;;;;;;;15.00;11.50;;;;;;;13.11;85.44;98925.73;236389;1197;22461;-74
2021/09/27 01:45:26;;;;;;;13.20;10.40;;;;;;;13.11;85.69;98931.11;236442;1197;22474;-73
2021/09/27 01:50:45;;;;;;;15.30;12.10;;;;;;;13.10;85.63;98931.23;236407;1190;25303;-73
2021/09/27 01:56:12;;;;;;;13.20;11.10;;;;;;;13.09;85.86;98921.35;236351;1192;22452;-71
2021/09/27 02:01:33;;;;;;;16.10;11.70;;;;;;;13.08;85.93;98922.05;236226;1197;24152;-74
2021/09/27 02:06:47;;;;;;;14.10;11.20;;;;;;;13.07;86.00;98926.46;236188;1197;24085;-74
2021/09/27 02:12:13;;;;;;;14.80;10.40;;;;;;;13.12;86.29;98931.48;236217;1197;22559;-71
2021/09/27 02:17:38;;;;;;;15.80;12.00;;;;;;;13.24;86.59;98930.14;236482;1198;22445;-73
2021/09/27 02:22:52;;;;;;;13.60;10.50;;;;;;;13.37;86.51;98928.31;236289;1198;24019;-72
2021/09/27 02:27:55;;;;;;;14.80;11.30;;;;;;;13.50;86.48;98922.55;236069;1197;22412;-71
2021/09/27 02:33:03;;;;;;;17.30;12.80;;;;;;;13.58;86.28;98923.61;236122;1197;22971;-71
2021/09/27 02:38:28;;;;;;;13.60;11.50;;;;;;;13.64;86.28;98925.29;235836;1198;24093;-74
2021/09/27 02:43:44;;;;;;;16.60;12.30;;;;;;;13.72;86.30;98919.14;236548;1197;25010;-73
2021/09/27 02:49:09;;;;;;;22.10;14.50;;;;;;;13.77;86.35;98909.16;236377;1197;22477;-72
2021/09/27 02:54:19;;;;;;;20.60;14.00;;;;;;;13.82;86.43;98911.74;236179;1184;24058;-74
2021/09/27 02:59:21;;;;;;;22.80;14.30;;;;;;;13.86;86.66;98909.23;236359;1193;23093;-72
2021/09/27 03:04:34;;;;;;;22.00;14.10;;;;;;;13.93;86.85;98916.98;236043;1198;24054;-74
2021/09/27 03:09:46;;;;;;;27.60;17.20;;;;;;;14.00;86.96;98914.92;236064;1191;22434;-72
2021/09/27 03:15:16;;;;;;;25.50;16.30;;;;;;;14.06;87.09;98914.55;235985;1197;24158;-73
2021/09/27 03:20:40;;;;;;;26.30;16.40;;;;;;;14.09;87.04;98908.13;236223;1192;22508;-74
2021/09/27 03:25:51;;;;;;;25.00;15.40;;;;;;;14.15;87.22;98914.98;236138;1192;22499;-74
2021/09/27 03:30:59;;;;;;;25.20;15.80;;;;;;;14.21;87.39;98909.70;236311;1197;24045;-74
2021/09/27 03:36:11;;;;;;;25.30;15.80;;;;;;;14.25;87.33;98907.50;236260;1190;24001;-72
2021/09/27 03:41:31;;;;;;;23.20;16.20;;;;;;;14.28;87.29;98904.04;236088;1198;22468;-74
2021/09/27 03:46:43;;;;;;;23.80;14.60;;;;;;;14.33;87.40;98900.44;236443;1191;24150;-74
2021/09/27 03:52:02;;;;;;;27.00;17.50;;;;;;;14.37;87.21;98895.13;236450;1196;22445;-74
2021/09/27 03:57:16;;;;;;;27.90;18.00;;;;;;;14.36;87.16;98889.93;236478;1198;25306;-74
2021/09/27 04:02:45;;;;;;;29.30;16.70;;;;;;;14.33;87.14;98896.09;236220;1198;22502;-72
2021/09/27 04:07:58;;;;;;;26.40;17.50;;;;;;;14.34;87.31;98900.92;236357;1197;24211;-73
2021/09/27 04:13:27;;;;;;;28.10;18.00;;;;;;;14.39;87.51;98900.66;236188;1191;22522;-73
2021/09/27 04:18:55;;;;;;;31.60;18.00;;;;;;;14.47;87.43;98912.42;236165;1190;25244;-74
2021/09/27 04:24:12;;;;;;;28.10;17.80;;;;;;;14.55;87.58;98913.95;235899;1196;24155;-73
2021/09/27 04:29:27;;;;;;;23.40;15.10;;;;;;;14.60;87.53;98914.35;236073;1190;22444;-73
2021/09/27 04:34:41;;;;;;;21.10;13.40;;;;;;;14.61;87.28;98906.79;236132;1196;22589;-73
2021/09/27 04:39:47;;;;;;;28.60;15.40;;;;;;;14.59;87.15;98907.91;236139;1198;24084;-73
2021/09/27 04:45:07;;;;;;;24.60;16.10;;;;;;;14.58;87.21;98912.17;236278;1198;22448;-72
2021/09/27 04:50:47;;;;;;;25.90;16.10;;;;;;;14.59;87.29;98916.84;236144;1192;24053;-73
2021/09/27 04:56:02;;;;;;;25.70;15.90;;;;;;;14.65;87.57;98922.92;236767;1190;22524;-75
2021/09/27 05:01:47;;;;;;;29.30;18.10;;;;;;;14.71;87.59;98926.00;236338;1198;22563;-73
2021/09/27 05:07:19;;;;;;;25.60;16.70;;;;;;;14.75;87.41;98927.79;236633;1196;22438;-71
2021/09/27 05:12:54;;;;;;;25.90;16.00;;;;;;;14.76;87.42;98933.40;236500;1197;22424;-73
2021/09/27 05:18:11;;;;;;;24.10;15.30;;;;;;;14.75;87.15;98934.52;236515;1197;22851;-72
2021/09/27 05:23:38;;;;;;;24.10;15.00;;;;;;;14.77;87.09;98934.95;236628;1190;22421;-75
2021/09/27 05:29:13;;;;;;;27.30;17.50;;;;;;;14.80;87.35;98939.38;236103;1197;25197;-75
2021/09/27 05:34:39;;;;;;;26.80;16.00;;;;;;;14.89;87.41;98938.88;236188;1198;24075;-73
2021/09/27 05:40:32;;;;;;;28.70;17.80;;;;;;;14.94;87.18;98933.02;236144;1190;22447;-74
2021/09/27 05:46:07;;;;;;;25.40;15.40;;;;;;;14.96;87.19;98936.20;236340;1190;22464;-72
2021/09/27 05:51:29;;;;;;;26.90;15.90;;;;;;;15.00;87.24;98945.70;236226;1197;23112;-71
2021/09/27 05:57:10;;;;;;;22.10;13.30;;;;;;;15.08;87.31;98942.29;236463;1190;24203;-71
2021/09/27 06:02:31;;;;;;;24.50;15.30;;;;;;;15.13;86.89;98940.84;236433;1197;24046;-74
2021/09/27 06:07:46;;;;;;;25.40;17.20;;;;;;;15.16;86.88;98946.85;236761;1184;22894;-73
2021/09/27 06:13:11;;;;;;;24.80;14.70;;;;;;;15.19;86.78;98942.75;236427;1193;22463;-73
2021/09/27 06:18:45;;;;;;;21.60;14.00;;;;;;;15.27;86.64;98940.92;236998;1197;22450;-71
2021/09/27 06:23:58;;;;;;;19.70;12.50;;;;;;;15.31;86.39;98936.58;236352;1196;22482;-73
2021/09/27 06:29:13;;;;;;;24.60;15.40;;;;;;;15.33;86.36;98935.67;236367;1190;24048;-73
2021/09/27 06:34:49;;;;;;;23.30;13.60;;;;;;;15.38;86.36;98933.89;236896;1192;22422;-71
2021/09/27 06:39:55;;;;;;;27.80;16.40;;;;;;;15.45;86.27;98937.04;236998;1197;22487;-73
2021/09/27 06:44:57;;;;;;;25.90;16.40;;;;;;;15.49;86.05;98938.31;236907;1190;23137;-73
2021/09/27 06:50:00;;;;;;;25.40;15.90;;;;;;;15.49;85.72;98941.84;236758;1190;24039;-73
2021/09/27 06:55:05;;;;;;;22.40;14.20;;;;;;;15.50;85.73;98937.88;236918;1190;26138;-74
2021/09/27 07:00:08;;;;;;;25.70;16.70;;;;;;;15.49;85.55;98937.05;236810;1197;24696;-74
2021/09/27 07:05:12;;;;;;;24.70;17.50;;;;;;;15.49;85.67;98934.22;236902;1190;22470;-75
2021/09/27 07:10:31;;;;;;;27.10;17.80;;;;;;;15.61;85.83;98940.08;237697;1193;24084;-74
2021/09/27 07:15:47;;;;;;;27.40;16.10;;;;;;;15.73;85.58;98939.30;237999;1190;25387;-73
2021/09/27 07:20:51;;;;;;;24.20;15.40;;;;;;;15.85;85.30;98938.20;237511;1190;22450;-76
2021/09/27 07:25:54;;;;;;;28.90;17.40;;;;;;;15.93;84.95;98935.06;238091;1194;22906;-74
2021/09/27 07:30:56;;;;;;;25.50;16.10;;;;;;;15.93;84.87;98935.09;236965;1197;22859;-75
2021/09/27 07:35:59;;;;;;;22.40;15.10;;;;;;;15.97;84.79;98932.70;236313;1197;24051;-74
2021/09/27 07:41:09;;;;;;;23.30;14.70;;;;;;;16.04;84.66;98934.92;236488;1197;22453;-75
2021/09/27 07:46:18;;;;;;;23.30;16.50;;;;;;;16.13;84.51;98936.23;236420;1190;22418;-75
2021/09/27 07:51:22;;;;;;;23.90;15.80;;;;;;;16.24;84.42;98935.64;236659;1190;22452;-74
2021/09/27 07:56:31;;;;;;;27.10;16.10;;;;;;;16.39;84.29;98934.32;236483;1190;25046;-75
2021/09/27 08:01:47;;;;;;;29.20;18.40;;;;;;;16.55;84.04;98939.36;236512;1191;24999;-73
2021/09/27 08:06:49;;;;;;;25.40;17.50;;;;;;;16.71;83.81;98940.09;236361;1193;24072;-73
2021/09/27 08:11:51;;;;;;;23.30;16.40;;;;;;;16.88;83.66;98937.06;236686;1190;22475;-74
2021/09/27 08:17:05;;;;;;;27.50;18.20;;;;;;;17.09;83.41;98935.66;236823;1190;22634;-73
2021/09/27 08:22:08;;;;;;;24.60;16.60;;;;;;;17.27;82.99;98942.05;236747;1190;24117;-72
2021/09/27 08:27:10;;;;;;;23.90;16.60;;;;;;;17.38;82.38;98945.46;236930;1190;24042;-72
2021/09/27 08:32:14;;;;;;;24.60;17.30;;;;;;;17.49;82.21;98942.10;237240;1190;24064;-74
2021/09/27 08:37:16;;;;;;;25.50;16.80;;;;;;;17.54;81.69;98944.85;236865;1190;22531;-74
2021/09/27 08:42:25;;;;;;;22.80;18.00;;;;;;;17.65;81.82;98952.06;236873;1197;22450;-72
2021/09/27 08:47:33;;;;;;;24.80;18.30;;;;;;;17.82;81.33;98950.89;238048;1190;22427;-74
2021/09/27 08:52:38;;;;;;;24.90;17.70;;;;;;;17.92;81.31;98947.61;236890;1197;22569;-71
2021/09/27 08:57:52;;;;;;;22.00;16.50;;;;;;;18.03;80.84;98942.81;236767;1197;25932;-72
2021/09/27 09:03:23;;;;;;;26.80;18.10;;;;;;;18.10;80.38;98937.80;236866;1193;24119;-71
2021/09/27 09:08:47;;;;;;;24.30;17.70;;;;;;;18.16;80.13;98944.66;236462;1190;24115;-72
2021/09/27 09:13:59;;;;;;;20.60;16.40;;;;;;;18.24;79.82;98940.52;237178;1190;22479;-72
2021/09/27 09:19:07;;;;;;;23.50;16.30;;;;;;;18.51;79.89;98947.38;236798;1198;22455;-72
2021/09/27 09:24:15;;;;;;;22.90;17.10;;;;;;;18.78;79.29;98946.00;236474;1193;23680;-72
2021/09/27 09:29:25;;;;;;;24.30;18.30;;;;;;;18.93;78.76;98942.16;236384;1196;24663;-71
2021/09/27 09:34:34;;;;;;;21.30;15.60;;;;;;;19.10;78.82;98935.39;236401;1192;24056;-72
2021/09/27 09:40:01;;;;;;;20.90;16.10;;;;;;;19.23;77.98;98941.37;236945;1197;22446;-72
2021/09/27 09:45:17;;;;;;;20.90;17.30;;;;;;;19.13;77.24;98945.65;236634;1190;22538;-73
2021/09/27 09:50:23;;;;;;;19.00;15.00;;;;;;;19.02;77.04;98944.69;236602;1191;24168;-72
2021/09/27 09:55:28;;;;;;;21.40;15.70;;;;;;;18.96;77.01;98941.16;236334;1197;22502;-73
2021/09/27 10:00:49;;;;;;;20.20;15.80;;;;;;;18.95;76.80;98941.69;236420;1197;24023;-72
2021/09/27 10:06:02;;;;;;;20.40;15.70;;;;;;;18.94;76.71;98939.56;236349;1190;22438;-73
2021/09/27 10:11:09;;;;;;;18.00;14.00;;;;;;;19.06;76.91;98927.75;236893;1197;22452;-71
2021/09/27 10:16:16;;;;;;;19.90;15.60;;;;;;;19.25;76.52;98925.06;236823;1197;22764;-73
2021/09/27 10:21:27;;;;;;;19.90;15.10;;;;;;;19.39;76.12;98930.80;236840;1197;22468;-73
2021/09/27 10:26:40;;;;;;;22.00;15.60;;;;;;;19.55;75.93;98935.01;236432;1197;24493;-71
2021/09/27 10:31:53;;;;;;;18.30;14.00;;;;;;;19.68;75.70;98940.81;236467;1197;22433;-70
2021/09/27 10:37:09;;;;;;;19.60;15.20;;;;;;;19.80;75.22;98942.10;236284;1197;22477;-72
2021/09/27 10:42:32;;;;;;;18.90;15.50;;;;;;;19.86;74.77;98938.09;236248;1198;22442;-71
2021/09/27 10:47:58;;;;;;;18.80;15.50;;;;;;;19.89;74.38;98931.96;236528;1183;22570;-74
2021/09/27 10:53:16;;;;;;;18.70;15.60;;;;;;;19.82;74.23;98923.91;237172;1197;22552;-74
2021/09/27 10:58:47;;;;;;;19.50;15.30;;;;;;;19.86;74.32;98919.52;236558;1197;24082;-74
2021/09/27 11:04:10;;;;;;;17.20;14.20;;;;;;;19.98;74.58;98915.11;236908;1190;23979;-74
2021/09/27 11:09:24;;;;;;;;;;;;;;;20.18;74.45;98916.95;236878;1190;22419;-74
2021/09/27 11:14:37;;;;;;;16.80;13.50;;;;;;;20.39;74.37;98910.48;236776;1190;22559;-74
2021/09/27 11:19:43;;;;;;;20.00;14.10;;;;;;;20.57;73.88;98914.72;237193;1183;22600;-74
2021/09/27 11:24:48;;;;;;;17.70;14.30;;;;;;;20.77;73.82;98909.52;236765;1197;24129;-74
2021/09/27 11:29:51;;;;;;;14.40;12.70;;;;;;;21.00;73.64;98904.47;236418;1190;22442;-72
2021/09/27 11:35:33;;;;;;;16.40;14.00;;;;;;;21.13;72.90;98908.02;236659;1184;24141;-72
2021/09/27 11:40:39;;;;;;;17.90;14.20;;;;;;;21.25;72.85;98897.83;236497;1197;24016;-74
2021/09/27 11:46:02;;;;;;;19.00;14.90;;;;;;;21.33;72.34;98884.94;236745;1190;25162;-75
2021/09/27 11:51:05;;;;;;;16.10;12.90;;;;;;;21.47;72.19;98881.08;236434;1196;22430;-75
2021/09/27 11:56:39;;;;;;;15.90;13.70;;;;;;;21.60;72.04;98873.43;236527;1197;24055;-75
2021/09/27 12:01:51;;;;;;;14.60;12.90;;;;;;;21.66;71.23;98867.79;236541;1190;24199;-74
2021/09/27 12:07:04;;;;;;;16.20;12.00;;;;;;;21.72;71.22;98867.12;236712;1197;23125;-74
2021/09/27 12:12:28;;;;;;;13.80;12.40;;;;;;;21.84;71.09;98860.95;236478;1190;24021;-75
2021/09/27 12:17:36;;;;;;;14.70;11.60;;;;;;;21.98;70.81;98860.80;236741;1190;22928;-75
2021/09/27 12:23:01;;;;;;;32.90;28.20;;;;;;;22.02;70.45;98856.67;237827;1196;22475;-73
2021/09/27 12:28:11;;;;;;;15.90;14.20;;;;;;;22.00;70.15;98857.11;237383;1190;22659;-75
2021/09/27 12:33:25;;;;;;;11.80;10.10;;;;;;;22.04;69.87;98849.86;236891;1197;25283;-74
2021/09/27 12:38:28;;;;;;;12.60;11.20;;;;;;;22.06;69.84;98846.38;236956;1196;24034;-75
2021/09/27 12:43:32;;;;;;;12.60;10.80;;;;;;;22.07;69.46;98843.83;236514;1196;23983;-73
2021/09/27 12:48:42;;;;;;;13.80;11.50;;;;;;;22.08;69.54;98843.20;236507;1193;22619;-75
2021/09/27 12:53:51;;;;;;;11.90;10.60;;;;;;;22.15;69.51;98841.93;236702;1197;22449;-75
2021/09/27 12:58:57;;;;;;;;;;;;;;;22.26;69.55;98836.41;236768;1196;25282;-74
2021/09/27 13:04:06;;;;;;;10.50;9.40;;;;;;;22.34;69.32;98829.99;236964;1190;22485;-74
2021/09/27 13:09:18;;;;;;;11.60;9.40;;;;;;;22.41;69.02;98824.76;236665;1189;22545;-74
2021/09/27 13:14:26;;;;;;;10.40;9.40;;;;;;;22.48;68.72;98822.92;236496;1183;25195;-75
2021/09/27 13:19:45;;;;;;;10.80;9.70;;;;;;;22.49;68.42;98818.09;236766;1197;24773;-74
2021/09/27 13:24:52;;;;;;;10.60;9.50;;;;;;;22.47;67.92;98816.58;236550;1190;22654;-75
2021/09/27 13:30:18;;;;;;;13.10;11.30;;;;;;;22.48;67.93;98816.90;236908;1190;22421;-75
2021/09/27 13:35:23;;;;;;;9.20;8.30;;;;;;;22.59;68.10;98813.48;236800;1189;25180;-75
2021/09/27 13:40:38;;;;;;;11.90;10.70;;;;;;;22.68;67.47;98814.08;236311;1198;24055;-74
2021/09/27 13:45:42;;;;;;;9.90;8.90;;;;;;;22.73;67.55;98810.16;236604;1190;22579;-74
2021/09/27 13:50:46;;;;;;;10.50;8.50;;;;;;;22.77;67.14;98805.30;236848;1190;22546;-75
2021/09/27 13:55:50;;;;;;;11.40;8.30;;;;;;;22.80;67.07;98802.53;237225;1190;24250;-76
2021/09/27 14:00:54;;;;;;;9.40;8.50;;;;;;;22.84;66.77;98798.45;237138;1192;24024;-74
2021/09/27 14:06:10;;;;;;;10.80;9.20;;;;;;;22.83;66.40;98793.23;237592;1190;24034;-74
2021/09/27 14:11:33;;;;;;;9.40;8.50;;;;;;;22.81;66.12;98795.75;237275;1190;22521;-74
2021/09/27 14:16:38;;;;;;;9.20;8.30;;;;;;;22.75;65.76;98794.66;237405;1197;22989;-75
2021/09/27 14:21:41;;;;;;;9.50;7.80;;;;;;;22.73;66.04;98799.02;236243;1197;24557;-74
2021/09/27 14:26:43;;;;;;;7.50;6.70;;;;;;;22.68;65.48;98799.55;236488;1196;24004;-76
2021/09/27 14:31:45;;;;;;;7.60;6.80;;;;;;;22.56;64.89;98800.41;237158;1196;24052;-74
2021/09/27 14:36:49;;;;;;;7.40;6.40;;;;;;;22.35;64.65;98795.95;236336;1196;24108;-75
2021/09/27 14:41:51;;;;;;;7.80;6.60;;;;;;;22.14;64.19;98795.08;236218;1184;22482;-73
2021/09/27 14:46:54;;;;;;;10.30;9.10;;;;;;;21.97;64.43;98792.92;236326;1197;24120;-75
2021/09/27 14:51:56;;;;;;;8.50;7.70;;;;;;;21.83;64.68;98791.14;236471;1190;24181;-74
2021/09/27 14:57:00;;;;;;;8.30;7.00;;;;;;;21.73;65.02;98788.00;236476;1197;24019;-75
2021/09/27 15:02:03;;;;;;;10.60;8.70;;;;;;;21.64;64.94;98796.56;236448;1183;24033;-74
2021/09/27 15:07:17;;;;;;;7.70;6.80;;;;;;;21.55;65.09;98798.11;236379;1183;24162;-75
2021/09/27 15:12:20;;;;;;;8.50;7.60;;;;;;;21.47;65.18;98801.13;236590;1197;22420;-75
2021/09/27 15:17:23;;;;;;;10.30;8.20;;;;;;;21.34;65.38;98803.92;236878;1196;25240;-77
2021/09/27 15:22:31;;;;;;;10.70;8.50;;;;;;;21.22;65.52;98803.91;236505;1197;22765;-74
2021/09/27 15:27:33;;;;;;;10.20;9.00;;;;;;;21.13;65.81;98798.45;236850;1174;22513;-73
2021/09/27 15:32:38;;;;;;;11.20;8.60;;;;;;;20.99;65.89;98801.20;236554;1190;24072;-73
2021/09/27 15:37:41;;;;;;;10.50;8.80;;;;;;;20.82;66.20;98799.90;236554;1197;22403;-74
2021/09/27 15:42:43;;;;;;;10.50;7.80;;;;;;;20.66;66.59;98798.61;236352;1190;22419;-75
2021/09/27 15:47:46;;;;;;;10.80;8.60;;;;;;;20.51;66.97;98801.86;236299;1176;24078;-73
2021/09/27 15:52:48;;;;;;;10.90;9.20;;;;;;;20.36;67.45;98806.32;236323;1197;24045;-73
2021/09/27 15:57:51;;;;;;;12.40;9.80;;;;;;;20.24;68.05;98811.09;236087;1190;22450;-75
2021/09/27 16:02:53;;;;;;;12.30;9.80;;;;;;;20.09;68.50;98812.13;236120;1193;24042;-74
2021/09/27 16:07:55;;;;;;;13.70;9.40;;;;;;;19.88;68.64;98816.21;236290;1190;24050;-75
2021/09/27 16:13:00;;;;;;;16.90;10.40;;;;;;;19.70;68.93;98813.77;236041;1190;26188;-73
2021/09/27 16:18:08;;;;;;;14.10;10.40;;;;;;;19.58;69.52;98816.17;236292;1196;22805;-75
2021/09/27 16:23:13;;;;;;;16.50;11.30;;;;;;;19.47;70.14;98819.83;236408;1190;22518;-73
2021/09/27 16:28:16;;;;;;;16.30;11.80;;;;;;;19.32;70.40;98818.27;236370;1197;22427;-72
2021/09/27 16:33:19;;;;;;;13.90;11.10;;;;;;;19.17;70.70;98831.33;236216;1192;24043;-74
2021/09/27 16:38:21;;;;;;;16.30;12.30;;;;;;;19.02;71.10;98836.80;236131;1183;22459;-75
2021/09/27 16:43:24;;;;;;;15.70;11.20;;;;;;;18.88;71.57;98842.42;236448;1197;22907;-73
2021/09/27 16:48:27;;;;;;;15.70;10.40;;;;;;;18.75;71.90;98842.88;236209;1176;24046;-75
2021/09/27 16:53:29;;;;;;;14.00;9.60;;;;;;;18.65;72.13;98845.97;236059;1191;24041;-74
2021/09/27 16:58:32;;;;;;;14.60;10.30;;;;;;;18.54;72.37;98853.64;236090;1196;22439;-75
2021/09/27 17:03:35;;;;;;;16.20;11.30;;;;;;;18.51;72.82;98856.08;235939;1197;22537;-74
2021/09/27 17:08:37;;;;;;;15.80;11.60;;;;;;;18.46;73.14;98857.26;236378;1197;24051;-75
2021/09/27 17:13:43;;;;;;;13.60;10.60;;;;;;;18.40;73.30;98858.45;236232;1189;24102;-73
2021/09/27 17:18:47;;;;;;;18.10;13.50;;;;;;;18.35;73.56;98856.15;236097;1190;22447;-73
2021/09/27 17:23:58;;;;;;;17.00;13.60;;;;;;;18.27;73.70;98858.38;236133;1175;24041;-74
2021/09/27 17:29:05;;;;;;;17.40;12.50;;;;;;;18.16;73.97;98860.87;236337;1190;22443;-74
2021/09/27 17:34:12;;;;;;;19.40;12.90;;;;;;;18.07;74.29;98861.42;236098;1197;22522;-74
2021/09/27 17:39:19;;;;;;;16.70;12.90;;;;;;;18.03;74.38;98863.23;236104;1190;25198;-73
2021/09/27 17:44:22;;;;;;;13.80;11.80;;;;;;;18.03;74.47;98867.08;236252;1182;25219;-72
2021/09/27 17:49:25;;;;;;;14.20;10.80;;;;;;;18.00;74.24;98868.29;236113;1197;22434;-74
2021/09/27 17:54:28;;;;;;;14.40;9.70;;;;;;;17.95;74.26;98873.17;236719;1189;22545;-72
2021/09/27 17:59:32;;;;;;;15.40;11.80;;;;;;;17.93;74.34;98868.16;236747;1197;24058;-75
2021/09/27 18:04:35;;;;;;;12.50;9.80;;;;;;;17.86;74.29;98872.30;236885;1190;25174;-74
2021/09/27 18:09:37;;;;;;;12.70;9.40;;;;;;;17.68;74.21;98875.08;236653;1192;24047;-73
2021/09/27 18:14:40;;;;;;;13.10;9.80;;;;;;;17.48;74.36;98876.14;236464;1197;22426;-73
2021/09/27 18:19:43;;;;;;;14.90;11.50;;;;;;;17.29;74.52;98880.89;236757;1197;24054;-73
2021/09/27 18:24:46;;;;;;;15.50;11.60;;;;;;;17.13;74.90;98886.64;236211;1193;22676;-72
2021/09/27 18:29:49;;;;;;;14.30;11.60;;;;;;;16.94;75.11;98886.52;236383;1197;24108;-73
2021/09/27 18:34:52;;;;;;;20.10;14.80;;;;;;;16.79;75.16;98882.90;236355;1197;23985;-73
2021/09/27 18:39:55;;;;;;;18.70;12.30;;;;;;;16.68;75.34;98878.75;236338;1197;22424;-74
2021/09/27 18:44:58;;;;;;;15.60;11.90;;;;;;;16.60;75.52;98882.06;236195;1198;24082;-74
2021/09/27 18:50:00;;;;;;;17.00;11.80;;;;;;;16.48;75.57;98882.23;236460;1191;24083;-74
2021/09/27 18:55:05;;;;;;;17.50;10.70;;;;;;;16.36;75.48;98887.52;236134;1196;24645;-73
2021/09/27 19:00:13;;;;;;;17.30;13.20;;;;;;;16.27;75.58;98893.88;236277;1191;24066;-75
2021/09/27 19:05:16;;;;;;;17.60;12.50;;;;;;;16.17;75.70;98892.55;236144;1197;22600;-75
2021/09/27 19:10:19;;;;;;;19.50;11.60;;;;;;;16.05;75.87;98896.39;236290;1192;24023;-75
2021/09/27 19:15:22;;;;;;;15.50;10.70;;;;;;;15.97;75.98;98899.27;236618;1197;24082;-75
2021/09/27 19:20:25;;;;;;;18.20;12.60;;;;;;;15.90;76.03;98898.76;236451;1197;24125;-75
2021/09/27 19:25:28;;;;;;;18.40;11.80;;;;;;;15.82;76.10;98895.31;236807;1181;24069;-74
2021/09/27 19:30:30;;;;;;;13.50;10.30;;;;;;;15.71;76.14;98901.47;236550;1197;24120;-75
2021/09/27 19:35:35;;;;;;;15.70;10.20;;;;;;;15.64;76.27;98910.50;236659;1190;22947;-73
2021/09/27 19:40:39;;;;;;;16.30;12.00;;;;;;;15.58;76.45;98908.63;236501;1197;22427;-72
2021/09/27 19:45:42;;;;;;;16.60;12.20;;;;;;;15.53;76.64;98908.88;236491;1197;24086;-74
2021/09/27 19:50:46;;;;;;;16.40;10.90;;;;;;;15.47;76.61;98906.98;236635;1197;24080;-74
2021/09/27 19:55:49;;;;;;;15.80;10.80;;;;;;;15.40;76.67;98908.52;236606;1192;24072;-74
2021/09/27 20:00:52;;;;;;;15.80;11.80;;;;;;;15.33;76.66;98911.54;236670;1190;25279;-74
2021/09/27 20:05:55;;;;;;;15.90;11.50;;;;;;;15.27;76.83;98918.64;236503;1197;23249;-73
2021/09/27 20:10:59;;;;;;;16.10;10.70;;;;;;;15.19;76.95;98920.69;236533;1196;22458;-75
2021/09/27 20:16:04;;;;;;;13.60;9.80;;;;;;;15.13;77.05;98921.85;236465;1191;24069;-73
2021/09/27 20:21:08;;;;;;;16.00;11.00;;;;;;;15.08;77.11;98924.52;236479;1197;24038;-74
2021/09/27 20:26:26;;;;;;;15.20;10.90;;;;;;;15.03;77.19;98926.76;236170;1193;22909;-74
2021/09/27 20:31:29;;;;;;;19.00;11.20;;;;;;;14.99;77.32;98930.08;236248;1198;25213;-75
2021/09/27 20:36:44;;;;;;;15.00;9.80;;;;;;;14.94;77.35;98929.18;236701;1196;24064;-74
2021/09/27 20:42:07;;;;;;;15.30;10.50;;;;;;;14.92;77.55;98931.20;236423;1190;24105;-74
2021/09/27 20:47:23;;;;;;;19.40;13.00;;;;;;;14.90;77.58;98936.37;236429;1197;24006;-74
2021/09/27 20:52:32;;;;;;;17.70;11.50;;;;;;;14.87;77.80;98936.84;236915;1191;22586;-72
2021/09/27 20:57:36;;;;;;;18.00;11.20;;;;;;;14.79;77.63;98936.52;236896;1196;24092;-72
2021/09/27 21:02:38;;;;;;;17.60;11.50;;;;;;;14.69;77.61;98934.61;236395;1196;22435;-75
2021/09/27 21:07:54;;;;;;;15.20;11.60;;;;;;;14.63;77.82;98940.86;236297;1197;25211;-75
2021/09/27 21:13:06;;;;;;;17.40;11.30;;;;;;;14.56;78.03;98941.64;236509;1183;24265;-73
2021/09/27 21:18:13;;;;;;;18.20;11.10;;;;;;;14.49;78.16;98946.08;236457;1196;24046;-72
2021/09/27 21:23:20;;;;;;;15.80;10.00;;;;;;;14.43;78.29;98948.11;237102;1196;22443;-73
2021/09/27 21:28:23;;;;;;;20.80;10.70;;;;;;;14.38;78.42;98947.69;237215;1196;24082;-73
2021/09/27 21:33:27;;;;;;;15.30;11.10;;;;;;;14.35;78.59;98949.33;236888;1196;24042;-73
2021/09/27 21:38:30;;;;;;;19.60;11.60;;;;;;;14.30;78.72;98953.72;236712;1193;25125;-74
2021/09/27 21:43:33;;;;;;;17.30;10.30;;;;;;;14.24;78.70;98950.80;236448;1197;24053;-74
2021/09/27 21:48:38;;;;;;;16.00;10.30;;;;;;;14.16;78.64;98952.77;236615;1197;24191;-75
2021/09/27 21:53:43;;;;;;;15.30;9.40;;;;;;;14.10;78.79;98952.11;236461;1190;24232;-74
2021/09/27 21:58:45;;;;;;;16.10;11.00;;;;;;;14.03;78.74;98947.22;236277;1190;24264;-75
2021/09/27 22:03:49;;;;;;;14.60;10.60;;;;;;;13.94;78.72;98944.33;236544;1197;22444;-74
2021/09/27 22:08:51;;;;;;;19.20;11.80;;;;;;;13.84;78.95;98944.22;236833;1192;25266;-75
2021/09/27 22:13:53;;;;;;;16.60;10.50;;;;;;;13.78;79.06;98946.62;237055;1196;25393;-74
2021/09/27 22:18:57;;;;;;;12.50;9.10;;;;;;;13.71;79.07;98943.45;236848;1196;22511;-72
2021/09/27 22:24:02;;;;;;;15.20;11.20;;;;;;;13.63;79.14;98940.39;236632;1190;24092;-75
2021/09/27 22:29:04;;;;;;;15.20;11.10;;;;;;;13.54;79.34;98941.30;236377;1190;22482;-73
2021/09/27 22:34:09;;;;;;;17.00;10.20;;;;;;;13.46;79.61;98934.11;236497;1190;25185;-73
2021/09/27 22:39:11;;;;;;;12.40;8.70;;;;;;;13.41;79.64;98935.55;236319;1196;26210;-74
2021/09/27 22:44:14;;;;;;;14.50;8.60;;;;;;;13.39;79.87;98932.98;236351;1197;24041;-74
2021/09/27 22:49:37;;;;;;;11.90;8.10;;;;;;;13.35;79.82;98938.68;236205;1196;24101;-72
2021/09/27 22:54:39;;;;;;;14.60;9.70;;;;;;;13.30;79.88;98946.10;236371;1194;24050;-74
2021/09/27 22:59:42;;;;;;;15.50;9.90;;;;;;;13.24;80.14;98954.48;236376;1197;24159;-74
2021/09/27 23:04:46;;;;;;;14.80;9.50;;;;;;;13.17;80.32;98959.13;236641;1190;24126;-72
2021/09/27 23:09:48;;;;;;;13.00;9.20;;;;;;;13.16;80.64;98963.34;236209;1190;24071;-75
2021/09/27 23:14:51;;;;;;;18.20;10.60;;;;;;;13.19;80.79;98965.38;235945;1197;23980;-72
2021/09/27 23:20:13;;;;;;;16.70;10.60;;;;;;;13.22;80.93;98965.05;236041;1197;24095;-74
2021/09/27 23:25:20;;;;;;;14.10;9.40;;;;;;;13.26;81.15;98963.30;235687;1198;25147;-74
2021/09/27 23:30:23;;;;;;;15.90;9.80;;;;;;;13.25;81.02;98959.13;235922;1198;25195;-75
2021/09/27 23:35:40;;;;;;;11.60;7.80;;;;;;;13.18;80.66;98957.11;236278;1197;24070;-74